Whitewater Creek, Colorado (Grand Mesa) Weather observations

Data are for observation ending at time listed.
 Day   Time    Ave.   Ave.  Ave.  Vector   Max.    Total    Solar   Ave.  
  of    of     Air    Rel.  Wind   Wind    Wind   Precip.   Rad.    Soil  
Year   Day     Temp.  Hum.  Speed  Dir.    Gust                     Temp. 
2015   (MST)    F      %     mph   deg.    mph      in.     W/m2     F   
------------------------------------------------------------------------------
 209   18:50   62.5    23    2.7   313      6.1    99999.00   99999    99999.0
 209   19:00   63.3    23    2.3   315      3.5    99999.00   99999    99999.0
 209   19:10   62.2    23    2.2   326      2.2    99999.00   99999    99999.0
 209   19:20   63.4    22    2.2   321      2.2    99999.00   99999    99999.0
 209   19:30   62.8    22    2.2   321      2.2    99999.00   99999    99999.0
 209   19:40   62.9    26    2.2   321      2.2    99999.00   99999    99999.0
 209   19:50   61.6    24    2.2   321      2.2    99999.00   99999    99999.0
 209   20:00   61.6    22    2.2   321      2.2    99999.00   99999    99999.0
 209   20:10   60.2    25    2.2   321      2.2    99999.00   99999    99999.0
 209   20:20   57.9    28    2.2   321      2.2    99999.00   99999    99999.0
 209   20:30   55.2    33    2.2   322      2.2    99999.00   99999    99999.0
 209   20:40   51.6    44    2.2   348      2.2    99999.00   99999    99999.0
 209   20:50   50.6    40    2.2   349      2.2    99999.00   99999    99999.0
 209   21:00   50.7    38    2.2   349      2.2    99999.00   99999    99999.0
 209   21:10   49.2    42    2.2   349      2.2    99999.00   99999    99999.0
 209   21:20   48.3    43    2.2   349      2.2    99999.00   99999    99999.0
 209   21:30   48.0    40    2.2   349      2.2    99999.00   99999    99999.0
 209   21:40   47.6    40    2.2   349      2.2    99999.00   99999    99999.0
 209   21:50   47.6    37    2.2   349      2.2    99999.00   99999    99999.0
 209   22:00   48.2    35    2.2   349      2.2    99999.00   99999    99999.0
 209   22:10   47.0    39    2.2   349      2.2    99999.00   99999    99999.0
 209   22:20   48.2    33    2.2   349      2.2    99999.00   99999    99999.0
 209   22:30   47.8    38    2.2   349      2.2    99999.00   99999    99999.0
 209   22:40   46.2    39    2.2   349      2.2    99999.00   99999    99999.0
 209   22:50   46.8    38    2.2   349      2.2    99999.00   99999    99999.0
 209   23:00   47.4    40    2.6   357      4.8    99999.00   99999    99999.0
 209   23:10   49.5    40    2.3     6      3.5    99999.00   99999    99999.0
 209   23:20   51.0    34    2.6   360      4.8    99999.00   99999    99999.0
 209   23:30   50.1    38    2.3   354      3.5    99999.00   99999    99999.0
 209   23:40   52.5    32    2.2     2      2.2    99999.00   99999    99999.0
 209   23:50   50.8    35    2.2     5      2.2    99999.00   99999    99999.0
 210    0:00   49.7    37    2.2     7      2.2    99999.00   99999    99999.0
 210    0:10   50.3    37    2.2     1      2.2    99999.00   99999    99999.0
 210    0:20   46.2    45    2.2   359      2.2    99999.00   99999    99999.0
 210    0:30   50.4    36    2.2     5      2.2    99999.00   99999    99999.0
 210    0:40   50.0    36    2.2     1      2.2    99999.00   99999    99999.0
 210    0:50   49.8    38    2.2     4      2.2    99999.00   99999    99999.0
 210    1:00   44.2    50    2.2     2      2.2    99999.00   99999    99999.0
 210    1:10   45.6    46    2.2     2      2.2    99999.00   99999    99999.0
 210    1:20   43.8    51    2.2     5      2.2    99999.00   99999    99999.0
 210    1:30   47.3    41    2.2    10      2.2    99999.00   99999    99999.0
 210    1:40   46.9    42    2.2    10      2.2    99999.00   99999    99999.0
 210    1:50   45.7    44    2.2    10      2.2    99999.00   99999    99999.0
 210    2:00   46.2    43    2.2    11      2.2    99999.00   99999    99999.0
 210    2:10   46.9    41    2.2    12      2.2    99999.00   99999    99999.0
 210    2:20   43.1    52    2.2    11      2.2    99999.00   99999    99999.0
 210    2:30   46.1    43    2.2    11      2.2    99999.00   99999    99999.0
 210    2:40   46.5    42    2.2    11      2.2    99999.00   99999    99999.0
 210    2:50   47.7    39    2.2    11      2.2    99999.00   99999    99999.0
 210    3:00   46.0    43    2.2    11      2.2    99999.00   99999    99999.0
 210    3:10   45.9    43    2.2    11      2.2    99999.00   99999    99999.0
 210    3:20   46.4    42    2.2    11      2.2    99999.00   99999    99999.0
 210    3:30   46.4    42    2.2    11      2.2    99999.00   99999    99999.0
 210    3:40   46.1    43    2.2    11      2.2    99999.00   99999    99999.0
 210    3:50   44.8    46    2.2    11      2.2    99999.00   99999    99999.0
 210    4:00   44.9    44    2.2    11      2.2    99999.00   99999    99999.0
 210    4:10   45.1    43    2.2    11      2.2    99999.00   99999    99999.0
 210    4:20   45.6    41    2.2    11      2.2    99999.00   99999    99999.0
 210    4:30   44.4    46    2.2    11      2.2    99999.00   99999    99999.0
 210    4:40   44.4    45    2.2    11      2.2    99999.00   99999    99999.0
 210    4:50   45.1    42    2.2    11      2.2    99999.00   99999    99999.0
 210    5:00   45.5    42    2.2    11      2.2    99999.00   99999    99999.0
 210    5:10   44.7    44    2.2    11      2.2    99999.00   99999    99999.0
 210    5:20   44.1    45    2.2    11      2.2    99999.00   99999    99999.0
 210    5:30   44.5    45    2.2    11      2.2    99999.00   99999    99999.0
 210    5:40   44.7    45    2.2    11      2.2    99999.00   99999    99999.0
 210    5:50   45.0    45    2.2    11      2.2    99999.00   99999    99999.0
 210    6:00   44.6    45    2.2    11      2.2    99999.00   99999    99999.0
 210    6:10   45.1    43    2.2    11      2.2    99999.00   99999    99999.0
 210    6:20   44.3    46    2.2    11      2.2    99999.00   99999    99999.0
 210    6:30   44.6    45    2.2    11      2.2    99999.00   99999    99999.0
 210    6:40   46.3    41    2.2    11      2.2    99999.00   99999    99999.0
 210    6:50   47.3    41    2.2    11      2.2    99999.00   99999    99999.0
 210    7:00   48.8    40    2.2    11      2.2    99999.00   99999    99999.0
 210    7:10   50.1    39    2.2    11      2.2    99999.00   99999    99999.0
 210    7:20   52.1    39    2.2    11      2.2    99999.00   99999    99999.0
 210    7:30   52.8    43    2.2    11      2.2    99999.00   99999    99999.0
 210    7:40   53.1    45    2.2    11      2.2    99999.00   99999    99999.0
 210    7:50   56.6    34    2.2    20      2.2    99999.00   99999    99999.0
 210    8:00   56.6    34    2.2    30      2.2    99999.00   99999    99999.0
 210    8:10   57.4    33    2.2    26      2.2    99999.00   99999    99999.0
 210    8:20   58.4    30    2.2    29      2.2    99999.00   99999    99999.0
 210    8:30   59.0    29    2.2    43      2.2    99999.00   99999    99999.0
 210    8:40   59.3    28    2.9    37      6.1    99999.00   99999    99999.0
 210    8:50   59.4    28    2.4    34      4.8    99999.00   99999    99999.0
 210    9:00   60.2    27    2.2    36      2.2    99999.00   99999    99999.0
 210    9:10   60.8    27    2.2    35      2.2    99999.00   99999    99999.0
 210    9:20   61.3    27    2.2    37      2.2    99999.00   99999    99999.0
 210    9:30   61.6    28    2.6    48      4.8    99999.00   99999    99999.0
 210    9:40   60.9    29    2.7    24      4.8    99999.00   99999    99999.0
 210    9:50   61.2    29    2.6    26      4.8    99999.00   99999    99999.0
 210   10:00   61.9    30    2.2    26      2.2    99999.00   99999    99999.0
 210   10:10   61.8    30    2.5    30      4.8    99999.00   99999    99999.0
 210   10:20   61.1    30    2.8    11      6.1    99999.00   99999    99999.0
 210   10:30   61.8    29    2.2    12      2.2    99999.00   99999    99999.0
 210   10:40   62.2    30    2.3    26      4.8    99999.00   99999    99999.0
 210   10:50   62.7    31    3.0    31      6.1    99999.00   99999    99999.0
 210   11:00   62.2    30    4.4    26      9.9    99999.00   99999    99999.0
 210   11:10   62.9    34    4.0    36      7.4    99999.00   99999    99999.0
 210   11:20   62.7    33    3.7    32      8.6    99999.00   99999    99999.0
 210   11:30   62.2    34    2.9    52      6.1    99999.00   99999    99999.0
 210   11:40   62.8    35    2.8    47      8.6    99999.00   99999    99999.0
 210   11:50   63.2    34    2.4   291      6.1    99999.00   99999    99999.0
 210   12:00   63.0    32    3.0   257      7.4    99999.00   99999    99999.0
 210   12:10   63.0    31    3.7   229      7.4    99999.00   99999    99999.0
 210   12:20   62.7    32    3.2   248      6.1    99999.00   99999    99999.0
 210   12:30   63.2    33    3.3   252      7.4    99999.00   99999    99999.0
 210   12:40   62.1    34    3.6   275      6.1    99999.00   99999    99999.0
 210   12:50   62.7    32    4.1   281      8.6    99999.00   99999    99999.0
 210   13:00   62.8    30    3.3   242      6.1    99999.00   99999    99999.0
 210   13:10   62.9    28    4.1   230      7.4    99999.00   99999    99999.0
 210   13:20   62.5    26    4.4   231      9.9    99999.00   99999    99999.0
 210   13:30   62.6    28    4.4   264      7.4    99999.00   99999    99999.0
 210   13:40   62.7    26    4.4   226      9.9    99999.00   99999    99999.0
 210   13:50   63.1    26    3.5   245      7.4    99999.00   99999    99999.0
 210   14:00   63.1    24    3.4   243      8.6    99999.00   99999    99999.0
 210   14:10   64.2    25    2.7   206      7.4    99999.00   99999    99999.0
 210   14:20   63.9    25    3.5   288      7.4    99999.00   99999    99999.0
 210   14:30   64.4    21    3.9   286      9.9    99999.00   99999    99999.0
 210   14:40   64.1    21    3.2   279      8.6    99999.00   99999    99999.0
 210   14:50   64.1    21    4.7   286     12.5    99999.00   99999    99999.0
 210   15:00   63.8    18    4.7   275      9.9    99999.00   99999    99999.0
 210   15:10   63.8    20    4.3   302      9.9    99999.00   99999    99999.0
 210   15:20   63.9    24    5.6   268     11.2    99999.00   99999    99999.0
 210   15:30   64.0    22    5.0   298     11.2    99999.00   99999    99999.0
 210   15:40   64.7    20    4.9   277     12.5    99999.00   99999    99999.0
 210   15:50   64.0    20    5.1   298      9.9    99999.00   99999    99999.0
 210   16:00   64.2    19    5.1   277     11.2    99999.00   99999    99999.0
 210   16:10   64.0    22    7.3   277     16.3    99999.00   99999    99999.0
 210   16:20   63.9    20    5.2   276      7.4    99999.00   99999    99999.0
 210   16:30   64.0    20    5.4   272      9.9    99999.00   99999    99999.0
 210   16:40   63.7    21    4.7   259      8.6    99999.00   99999    99999.0
 210   16:50   64.7    20    4.1   274      7.4    99999.00   99999    99999.0
 210   17:00   64.4    20    3.6   290      8.6    99999.00   99999    99999.0
 210   17:10   64.5    18    4.1   265      8.6    99999.00   99999    99999.0
 210   17:20   65.7    16    3.0   281      6.1    99999.00   99999    99999.0
 210   17:30   65.4    15    2.7   296      6.1    99999.00   99999    99999.0
 210   17:40   64.3    16    3.1   320      7.4    99999.00   99999    99999.0
 210   17:50   65.9    16    2.2   323      2.2    99999.00   99999    99999.0
 210   18:00   67.0    15    2.2   324      2.2    99999.00   99999    99999.0
 210   18:10   65.2    17    2.2    56      2.2    99999.00   99999    99999.0
 210   18:20   65.4    17    2.2    59      2.2    99999.00   99999    99999.0
 210   18:30   64.4    18    2.2    35      2.2    99999.00   99999    99999.0
 210   18:40   63.9    20    2.2    39      2.2    99999.00   99999    99999.0

Return to Whitewater Creek, Colorado graphs page.


Western Regional Climate Center,wrcc@dri.edu